sensor_id;sensor_type;location;lat;lon;timestamp;P1;P2;P0
80639;PMS5003;69992;60.170;24.692;2023-12-29T00:01:29;5;5;
80639;PMS5003;69992;60.170;24.692;2023-12-29T00:03:52;5;4;
80639;PMS5003;69992;60.170;24.692;2023-12-29T00:06:17;5;5;
80639;PMS5003;69992;60.170;24.692;2023-12-29T00:08:43;5;4;
80639;PMS5003;69992;60.170;24.692;2023-12-29T00:13:34;6;6;
80639;PMS5003;69992;60.170;24.692;2023-12-29T00:16:00;4;3;
80639;PMS5003;69992;60.170;24.692;2023-12-29T00:18:25;6;6;
80639;PMS5003;69992;60.170;24.692;2023-12-29T00:20:51;4;4;
80639;PMS5003;69992;60.170;24.692;2023-12-29T00:23:17;3;3;
80639;PMS5003;69992;60.170;24.692;2023-12-29T00:25:42;4;3;
80639;PMS5003;69992;60.170;24.692;2023-12-29T00:28:08;3;3;
80639;PMS5003;69992;60.170;24.692;2023-12-29T00:30:33;5;5;
80639;PMS5003;69992;60.170;24.692;2023-12-29T00:32:59;3;3;
80639;PMS5003;69992;60.170;24.692;2023-12-29T00:35:24;3;3;
80639;PMS5003;69992;60.170;24.692;2023-12-29T00:37:50;2;2;
80639;PMS5003;69992;60.170;24.692;2023-12-29T00:40:14;5;4;
80639;PMS5003;69992;60.170;24.692;2023-12-29T00:42:40;3;3;
80639;PMS5003;69992;60.170;24.692;2023-12-29T00:45:05;3;3;
80639;PMS5003;69992;60.170;24.692;2023-12-29T00:47:32;3;3;
80639;PMS5003;69992;60.170;24.692;2023-12-29T00:49:56;4;2;
80639;PMS5003;69992;60.170;24.692;2023-12-29T00:52:22;3;3;
80639;PMS5003;69992;60.170;24.692;2023-12-29T00:54:47;3;3;
80639;PMS5003;69992;60.170;24.692;2023-12-29T00:57:13;4;2;
80639;PMS5003;69992;60.170;24.692;2023-12-29T00:59:38;3;3;
80639;PMS5003;69992;60.170;24.692;2023-12-29T01:02:03;3;2;
80639;PMS5003;69992;60.170;24.692;2023-12-29T01:04:28;4;3;
80639;PMS5003;69992;60.170;24.692;2023-12-29T01:06:54;4;4;
80639;PMS5003;69992;60.170;24.692;2023-12-29T01:09:20;4;2;
80639;PMS5003;69992;60.170;24.692;2023-12-29T01:11:46;4;3;
80639;PMS5003;69992;60.170;24.692;2023-12-29T01:14:11;3;3;
80639;PMS5003;69992;60.170;24.692;2023-12-29T01:16:36;2;2;
80639;PMS5003;69992;60.170;24.692;2023-12-29T01:19:01;3;3;
80639;PMS5003;69992;60.170;24.692;2023-12-29T01:21:27;4;3;
80639;PMS5003;69992;60.170;24.692;2023-12-29T01:23:53;2;2;
80639;PMS5003;69992;60.170;24.692;2023-12-29T01:26:18;4;3;
80639;PMS5003;69992;60.170;24.692;2023-12-29T01:28:44;3;3;
80639;PMS5003;69992;60.170;24.692;2023-12-29T01:31:09;4;4;
80639;PMS5003;69992;60.170;24.692;2023-12-29T01:33:34;5;4;
80639;PMS5003;69992;60.170;24.692;2023-12-29T01:36:00;2;2;
80639;PMS5003;69992;60.170;24.692;2023-12-29T01:38:25;4;3;
80639;PMS5003;69992;60.170;24.692;2023-12-29T01:40:50;23;22;
80639;PMS5003;69992;60.170;24.692;2023-12-29T01:43:16;41;34;
80639;PMS5003;69992;60.170;24.692;2023-12-29T01:45:41;4;3;
80639;PMS5003;69992;60.170;24.692;2023-12-29T01:48:06;3;3;
80639;PMS5003;69992;60.170;24.692;2023-12-29T01:50:31;3;3;
80639;PMS5003;69992;60.170;24.692;2023-12-29T01:52:57;4;3;
80639;PMS5003;69992;60.170;24.692;2023-12-29T01:55:22;3;2;
80639;PMS5003;69992;60.170;24.692;2023-12-29T01:57:48;2;2;
80639;PMS5003;69992;60.170;24.692;2023-12-29T02:00:13;2;2;
80639;PMS5003;69992;60.170;24.692;2023-12-29T02:02:39;2;2;
80639;PMS5003;69992;60.170;24.692;2023-12-29T02:05:04;2;2;
80639;PMS5003;69992;60.170;24.692;2023-12-29T02:07:29;2;2;
80639;PMS5003;69992;60.170;24.692;2023-12-29T02:09:55;3;3;
80639;PMS5003;69992;60.170;24.692;2023-12-29T02:12:20;4;3;
80639;PMS5003;69992;60.170;24.692;2023-12-29T02:14:45;2;2;
80639;PMS5003;69992;60.170;24.692;2023-12-29T02:17:14;4;2;
80639;PMS5003;69992;60.170;24.692;2023-12-29T02:19:38;2;2;
80639;PMS5003;69992;60.170;24.692;2023-12-29T02:22:02;2;2;
80639;PMS5003;69992;60.170;24.692;2023-12-29T02:24:30;2;2;
80639;PMS5003;69992;60.170;24.692;2023-12-29T02:27:01;3;3;
80639;PMS5003;69992;60.170;24.692;2023-12-29T02:29:19;3;3;
80639;PMS5003;69992;60.170;24.692;2023-12-29T02:31:44;3;3;
80639;PMS5003;69992;60.170;24.692;2023-12-29T02:34:10;5;4;
80639;PMS5003;69992;60.170;24.692;2023-12-29T02:36:35;3;3;
80639;PMS5003;69992;60.170;24.692;2023-12-29T02:39:01;3;3;
80639;PMS5003;69992;60.170;24.692;2023-12-29T02:41:27;2;2;
80639;PMS5003;69992;60.170;24.692;2023-12-29T02:43:53;1;1;
80639;PMS5003;69992;60.170;24.692;2023-12-29T02:46:18;2;2;
80639;PMS5003;69992;60.170;24.692;2023-12-29T02:48:44;3;3;
80639;PMS5003;69992;60.170;24.692;2023-12-29T02:51:09;3;3;
80639;PMS5003;69992;60.170;24.692;2023-12-29T02:53:35;2;2;
80639;PMS5003;69992;60.170;24.692;2023-12-29T02:56:01;3;3;
80639;PMS5003;69992;60.170;24.692;2023-12-29T02:58:27;2;2;
80639;PMS5003;69992;60.170;24.692;2023-12-29T03:00:52;3;3;
80639;PMS5003;69992;60.170;24.692;2023-12-29T03:03:18;2;2;
80639;PMS5003;69992;60.170;24.692;2023-12-29T03:05:43;2;2;
80639;PMS5003;69992;60.170;24.692;2023-12-29T03:08:09;3;3;
80639;PMS5003;69992;60.170;24.692;2023-12-29T03:10:33;2;2;
80639;PMS5003;69992;60.170;24.692;2023-12-29T03:12:59;4;4;
80639;PMS5003;69992;60.170;24.692;2023-12-29T03:15:24;3;3;
80639;PMS5003;69992;60.170;24.692;2023-12-29T03:17:50;3;3;
80639;PMS5003;69992;60.170;24.692;2023-12-29T03:20:15;3;2;
80639;PMS5003;69992;60.170;24.692;2023-12-29T03:22:41;4;3;
80639;PMS5003;69992;60.170;24.692;2023-12-29T03:25:09;4;4;
80639;PMS5003;69992;60.170;24.692;2023-12-29T03:27:32;2;2;
80639;PMS5003;69992;60.170;24.692;2023-12-29T03:29:57;4;4;
80639;PMS5003;69992;60.170;24.692;2023-12-29T03:32:22;4;4;
80639;PMS5003;69992;60.170;24.692;2023-12-29T03:34:47;4;4;
80639;PMS5003;69992;60.170;24.692;2023-12-29T03:37:16;3;2;
80639;PMS5003;69992;60.170;24.692;2023-12-29T03:39:38;3;3;
80639;PMS5003;69992;60.170;24.692;2023-12-29T03:42:04;3;2;
80639;PMS5003;69992;60.170;24.692;2023-12-29T03:44:29;4;4;
80639;PMS5003;69992;60.170;24.692;2023-12-29T03:46:55;2;2;
80639;PMS5003;69992;60.170;24.692;2023-12-29T03:49:20;3;3;
80639;PMS5003;69992;60.170;24.692;2023-12-29T03:51:46;5;3;
80639;PMS5003;69992;60.170;24.692;2023-12-29T03:54:11;4;4;
80639;PMS5003;69992;60.170;24.692;2023-12-29T03:56:41;3;3;
80639;PMS5003;69992;60.170;24.692;2023-12-29T03:59:01;4;4;
80639;PMS5003;69992;60.170;24.692;2023-12-29T04:01:27;5;5;
80639;PMS5003;69992;60.170;24.692;2023-12-29T04:03:52;4;4;
80639;PMS5003;69992;60.170;24.692;2023-12-29T04:06:18;4;4;
80639;PMS5003;69992;60.170;24.692;2023-12-29T04:08:43;4;4;
80639;PMS5003;69992;60.170;24.692;2023-12-29T04:11:09;5;4;
80639;PMS5003;69992;60.170;24.692;2023-12-29T04:13:34;4;4;
80639;PMS5003;69992;60.170;24.692;2023-12-29T04:16:00;5;4;
80639;PMS5003;69992;60.170;24.692;2023-12-29T04:18:25;4;4;
80639;PMS5003;69992;60.170;24.692;2023-12-29T04:20:51;13;12;
80639;PMS5003;69992;60.170;24.692;2023-12-29T04:23:16;4;4;
80639;PMS5003;69992;60.170;24.692;2023-12-29T04:25:41;5;4;
80639;PMS5003;69992;60.170;24.692;2023-12-29T04:28:07;6;5;
80639;PMS5003;69992;60.170;24.692;2023-12-29T04:30:32;4;4;
80639;PMS5003;69992;60.170;24.692;2023-12-29T04:32:58;4;4;
80639;PMS5003;69992;60.170;24.692;2023-12-29T04:35:23;4;4;
80639;PMS5003;69992;60.170;24.692;2023-12-29T04:37:49;4;4;
80639;PMS5003;69992;60.170;24.692;2023-12-29T04:40:14;4;3;
80639;PMS5003;69992;60.170;24.692;2023-12-29T04:42:39;5;4;
80639;PMS5003;69992;60.170;24.692;2023-12-29T04:45:05;6;6;
80639;PMS5003;69992;60.170;24.692;2023-12-29T04:47:33;4;4;
80639;PMS5003;69992;60.170;24.692;2023-12-29T04:49:56;6;5;
80639;PMS5003;69992;60.170;24.692;2023-12-29T04:52:22;4;4;
80639;PMS5003;69992;60.170;24.692;2023-12-29T04:54:48;6;6;
80639;PMS5003;69992;60.170;24.692;2023-12-29T04:57:13;3;3;
80639;PMS5003;69992;60.170;24.692;2023-12-29T04:59:39;5;4;
80639;PMS5003;69992;60.170;24.692;2023-12-29T05:02:04;4;3;
80639;PMS5003;69992;60.170;24.692;2023-12-29T05:04:29;5;5;
80639;PMS5003;69992;60.170;24.692;2023-12-29T05:06:54;5;5;
80639;PMS5003;69992;60.170;24.692;2023-12-29T05:09:20;5;5;
80639;PMS5003;69992;60.170;24.692;2023-12-29T05:11:45;6;6;
80639;PMS5003;69992;60.170;24.692;2023-12-29T05:14:11;5;4;
80639;PMS5003;69992;60.170;24.692;2023-12-29T05:16:36;6;5;
80639;PMS5003;69992;60.170;24.692;2023-12-29T05:19:02;8;8;
80639;PMS5003;69992;60.170;24.692;2023-12-29T05:21:27;6;6;
80639;PMS5003;69992;60.170;24.692;2023-12-29T05:23:53;5;5;
80639;PMS5003;69992;60.170;24.692;2023-12-29T05:26:18;6;6;
80639;PMS5003;69992;60.170;24.692;2023-12-29T05:28:43;8;6;
80639;PMS5003;69992;60.170;24.692;2023-12-29T05:31:09;8;6;
80639;PMS5003;69992;60.170;24.692;2023-12-29T05:33:35;5;5;
80639;PMS5003;69992;60.170;24.692;2023-12-29T05:36:05;6;6;
80639;PMS5003;69992;60.170;24.692;2023-12-29T05:38:25;8;6;
80639;PMS5003;69992;60.170;24.692;2023-12-29T05:40:50;5;5;
80639;PMS5003;69992;60.170;24.692;2023-12-29T05:43:16;5;5;
80639;PMS5003;69992;60.170;24.692;2023-12-29T05:45:41;6;5;
80639;PMS5003;69992;60.170;24.692;2023-12-29T05:48:07;6;6;
80639;PMS5003;69992;60.170;24.692;2023-12-29T05:50:32;5;5;
80639;PMS5003;69992;60.170;24.692;2023-12-29T05:52:57;5;5;
80639;PMS5003;69992;60.170;24.692;2023-12-29T05:55:22;5;5;
80639;PMS5003;69992;60.170;24.692;2023-12-29T05:57:48;8;6;
80639;PMS5003;69992;60.170;24.692;2023-12-29T06:00:14;5;5;
80639;PMS5003;69992;60.170;24.692;2023-12-29T06:02:39;6;6;
80639;PMS5003;69992;60.170;24.692;2023-12-29T06:05:04;8;8;
80639;PMS5003;69992;60.170;24.692;2023-12-29T06:07:30;9;8;
80639;PMS5003;69992;60.170;24.692;2023-12-29T06:09:58;6;5;
80639;PMS5003;69992;60.170;24.692;2023-12-29T06:12:21;8;6;
80639;PMS5003;69992;60.170;24.692;2023-12-29T06:14:46;5;5;
80639;PMS5003;69992;60.170;24.692;2023-12-29T06:17:11;6;6;
80639;PMS5003;69992;60.170;24.692;2023-12-29T06:19:37;6;6;
80639;PMS5003;69992;60.170;24.692;2023-12-29T06:22:06;6;6;
80639;PMS5003;69992;60.170;24.692;2023-12-29T06:24:27;6;6;
80639;PMS5003;69992;60.170;24.692;2023-12-29T06:26:53;10;9;
80639;PMS5003;69992;60.170;24.692;2023-12-29T06:29:18;9;9;
80639;PMS5003;69992;60.170;24.692;2023-12-29T06:31:44;10;9;
80639;PMS5003;69992;60.170;24.692;2023-12-29T06:34:09;9;8;
80639;PMS5003;69992;60.170;24.692;2023-12-29T06:36:35;8;8;
80639;PMS5003;69992;60.170;24.692;2023-12-29T06:39:00;9;8;
80639;PMS5003;69992;60.170;24.692;2023-12-29T06:41:26;9;8;
80639;PMS5003;69992;60.170;24.692;2023-12-29T06:43:51;10;10;
80639;PMS5003;69992;60.170;24.692;2023-12-29T06:46:21;9;8;
80639;PMS5003;69992;60.170;24.692;2023-12-29T06:48:42;9;9;
80639;PMS5003;69992;60.170;24.692;2023-12-29T06:51:07;9;9;
80639;PMS5003;69992;60.170;24.692;2023-12-29T06:53:32;8;8;
80639;PMS5003;69992;60.170;24.692;2023-12-29T06:55:58;10;10;
80639;PMS5003;69992;60.170;24.692;2023-12-29T06:58:23;10;9;
80639;PMS5003;69992;60.170;24.692;2023-12-29T07:00:49;9;9;
80639;PMS5003;69992;60.170;24.692;2023-12-29T07:03:14;8;6;
80639;PMS5003;69992;60.170;24.692;2023-12-29T07:05:40;8;8;
80639;PMS5003;69992;60.170;24.692;2023-12-29T07:08:05;9;9;
80639;PMS5003;69992;60.170;24.692;2023-12-29T07:10:31;8;8;
80639;PMS5003;69992;60.170;24.692;2023-12-29T07:12:56;6;6;
80639;PMS5003;69992;60.170;24.692;2023-12-29T07:15:21;9;9;
80639;PMS5003;69992;60.170;24.692;2023-12-29T07:17:46;8;8;
80639;PMS5003;69992;60.170;24.692;2023-12-29T07:20:12;5;5;
80639;PMS5003;69992;60.170;24.692;2023-12-29T07:22:37;8;8;
80639;PMS5003;69992;60.170;24.692;2023-12-29T07:25:03;8;8;
80639;PMS5003;69992;60.170;24.692;2023-12-29T07:27:28;5;5;
80639;PMS5003;69992;60.170;24.692;2023-12-29T07:29:54;5;5;
80639;PMS5003;69992;60.170;24.692;2023-12-29T07:32:19;8;8;
80639;PMS5003;69992;60.170;24.692;2023-12-29T07:34:48;8;8;
80639;PMS5003;69992;60.170;24.692;2023-12-29T07:37:10;6;6;
80639;PMS5003;69992;60.170;24.692;2023-12-29T07:39:36;8;6;
80639;PMS5003;69992;60.170;24.692;2023-12-29T07:42:00;9;8;
80639;PMS5003;69992;60.170;24.692;2023-12-29T07:44:26;9;8;
80639;PMS5003;69992;60.170;24.692;2023-12-29T07:46:51;9;9;
80639;PMS5003;69992;60.170;24.692;2023-12-29T07:49:17;6;6;
80639;PMS5003;69992;60.170;24.692;2023-12-29T07:51:42;8;8;
80639;PMS5003;69992;60.170;24.692;2023-12-29T07:54:08;8;8;
80639;PMS5003;69992;60.170;24.692;2023-12-29T07:56:33;8;8;
80639;PMS5003;69992;60.170;24.692;2023-12-29T07:58:59;7;7;
80639;PMS5003;69992;60.170;24.692;2023-12-29T08:01:24;6;6;
80639;PMS5003;69992;60.170;24.692;2023-12-29T08:03:50;8;8;
80639;PMS5003;69992;60.170;24.692;2023-12-29T08:06:14;9;9;
80639;PMS5003;69992;60.170;24.692;2023-12-29T08:08:40;9;8;
80639;PMS5003;69992;60.170;24.692;2023-12-29T08:11:13;8;8;
80639;PMS5003;69992;60.170;24.692;2023-12-29T08:13:31;5;5;
80639;PMS5003;69992;60.170;24.692;2023-12-29T08:15:56;9;8;
80639;PMS5003;69992;60.170;24.692;2023-12-29T08:18:22;10;8;
80639;PMS5003;69992;60.170;24.692;2023-12-29T08:20:47;6;6;
80639;PMS5003;69992;60.170;24.692;2023-12-29T08:23:13;5;5;
80639;PMS5003;69992;60.170;24.692;2023-12-29T08:25:38;8;8;
80639;PMS5003;69992;60.170;24.692;2023-12-29T08:28:04;9;9;
80639;PMS5003;69992;60.170;24.692;2023-12-29T08:30:29;10;9;
80639;PMS5003;69992;60.170;24.692;2023-12-29T08:32:54;9;8;
80639;PMS5003;69992;60.170;24.692;2023-12-29T08:35:22;6;6;
80639;PMS5003;69992;60.170;24.692;2023-12-29T08:37:45;6;6;
80639;PMS5003;69992;60.170;24.692;2023-12-29T08:40:10;9;9;
80639;PMS5003;69992;60.170;24.692;2023-12-29T08:42:36;6;6;
80639;PMS5003;69992;60.170;24.692;2023-12-29T08:45:01;10;9;
80639;PMS5003;69992;60.170;24.692;2023-12-29T08:47:27;9;6;
80639;PMS5003;69992;60.170;24.692;2023-12-29T08:49:52;9;8;
80639;PMS5003;69992;60.170;24.692;2023-12-29T08:52:18;6;6;
80639;PMS5003;69992;60.170;24.692;2023-12-29T08:54:43;8;8;
80639;PMS5003;69992;60.170;24.692;2023-12-29T08:57:09;9;8;
80639;PMS5003;69992;60.170;24.692;2023-12-29T08:59:34;8;8;
80639;PMS5003;69992;60.170;24.692;2023-12-29T09:02:00;8;6;
80639;PMS5003;69992;60.170;24.692;2023-12-29T09:04:25;5;5;
80639;PMS5003;69992;60.170;24.692;2023-12-29T09:06:51;5;5;
80639;PMS5003;69992;60.170;24.692;2023-12-29T09:09:17;6;6;
80639;PMS5003;69992;60.170;24.692;2023-12-29T09:11:45;6;6;
80639;PMS5003;69992;60.170;24.692;2023-12-29T09:14:08;8;8;
80639;PMS5003;69992;60.170;24.692;2023-12-29T09:16:35;5;5;
80639;PMS5003;69992;60.170;24.692;2023-12-29T09:19:00;6;5;
80639;PMS5003;69992;60.170;24.692;2023-12-29T09:21:25;5;5;
80639;PMS5003;69992;60.170;24.692;2023-12-29T09:23:51;5;5;
80639;PMS5003;69992;60.170;24.692;2023-12-29T09:26:17;6;5;
80639;PMS5003;69992;60.170;24.692;2023-12-29T09:28:43;6;6;
80639;PMS5003;69992;60.170;24.692;2023-12-29T09:31:09;6;6;
80639;PMS5003;69992;60.170;24.692;2023-12-29T09:33:34;6;5;
80639;PMS5003;69992;60.170;24.692;2023-12-29T09:36:00;4;4;
80639;PMS5003;69992;60.170;24.692;2023-12-29T09:38:26;5;5;
80639;PMS5003;69992;60.170;24.692;2023-12-29T09:40:52;4;4;
80639;PMS5003;69992;60.170;24.692;2023-12-29T09:43:17;4;4;
80639;PMS5003;69992;60.170;24.692;2023-12-29T09:45:43;6;6;
80639;PMS5003;69992;60.170;24.692;2023-12-29T09:48:13;4;4;
80639;PMS5003;69992;60.170;24.692;2023-12-29T09:50:35;5;5;
80639;PMS5003;69992;60.170;24.692;2023-12-29T09:53:01;5;5;
80639;PMS5003;69992;60.170;24.692;2023-12-29T09:55:27;5;5;
80639;PMS5003;69992;60.170;24.692;2023-12-29T09:57:52;6;6;
80639;PMS5003;69992;60.170;24.692;2023-12-29T10:00:18;5;5;
80639;PMS5003;69992;60.170;24.692;2023-12-29T10:02:44;5;5;
80639;PMS5003;69992;60.170;24.692;2023-12-29T10:05:10;8;6;
80639;PMS5003;69992;60.170;24.692;2023-12-29T10:07:36;5;4;
80639;PMS5003;69992;60.170;24.692;2023-12-29T10:10:01;6;6;
80639;PMS5003;69992;60.170;24.692;2023-12-29T10:12:30;6;6;
80639;PMS5003;69992;60.170;24.692;2023-12-29T10:14:55;6;5;
80639;PMS5003;69992;60.170;24.692;2023-12-29T10:17:21;6;6;
80639;PMS5003;69992;60.170;24.692;2023-12-29T10:19:46;5;4;
80639;PMS5003;69992;60.170;24.692;2023-12-29T10:22:14;5;5;
80639;PMS5003;69992;60.170;24.692;2023-12-29T10:24:36;6;6;
80639;PMS5003;69992;60.170;24.692;2023-12-29T10:27:02;5;5;
80639;PMS5003;69992;60.170;24.692;2023-12-29T10:29:28;8;6;
80639;PMS5003;69992;60.170;24.692;2023-12-29T10:31:54;5;5;
80639;PMS5003;69992;60.170;24.692;2023-12-29T10:34:20;3;3;
80639;PMS5003;69992;60.170;24.692;2023-12-29T10:36:47;5;5;
80639;PMS5003;69992;60.170;24.692;2023-12-29T10:39:11;3;3;
80639;PMS5003;69992;60.170;24.692;2023-12-29T10:41:37;4;4;
80639;PMS5003;69992;60.170;24.692;2023-12-29T10:44:06;5;5;
80639;PMS5003;69992;60.170;24.692;2023-12-29T10:46:28;5;5;
80639;PMS5003;69992;60.170;24.692;2023-12-29T10:51:26;4;4;
80639;PMS5003;69992;60.170;24.692;2023-12-29T10:53:55;4;3;
80639;PMS5003;69992;60.170;24.692;2023-12-29T10:56:16;4;4;
80639;PMS5003;69992;60.170;24.692;2023-12-29T10:58:37;3;3;
80639;PMS5003;69992;60.170;24.692;2023-12-29T11:01:03;4;4;
80639;PMS5003;69992;60.170;24.692;2023-12-29T11:03:29;4;4;
80639;PMS5003;69992;60.170;24.692;2023-12-29T11:05:58;4;3;
80639;PMS5003;69992;60.170;24.692;2023-12-29T11:08:21;4;3;
80639;PMS5003;69992;60.170;24.692;2023-12-29T11:10:47;3;3;
80639;PMS5003;69992;60.170;24.692;2023-12-29T11:13:12;4;4;
80639;PMS5003;69992;60.170;24.692;2023-12-29T11:15:42;3;3;
80639;PMS5003;69992;60.170;24.692;2023-12-29T11:18:04;5;5;
80639;PMS5003;69992;60.170;24.692;2023-12-29T11:20:30;3;2;
80639;PMS5003;69992;60.170;24.692;2023-12-29T11:22:55;3;3;
80639;PMS5003;69992;60.170;24.692;2023-12-29T11:25:21;3;3;
80639;PMS5003;69992;60.170;24.692;2023-12-29T11:27:47;3;3;
80639;PMS5003;69992;60.170;24.692;2023-12-29T11:30:13;3;3;
80639;PMS5003;69992;60.170;24.692;2023-12-29T11:32:41;3;3;
80639;PMS5003;69992;60.170;24.692;2023-12-29T11:35:10;3;3;
80639;PMS5003;69992;60.170;24.692;2023-12-29T11:37:33;4;4;
80639;PMS5003;69992;60.170;24.692;2023-12-29T11:40:04;5;4;
80639;PMS5003;69992;60.170;24.692;2023-12-29T11:42:23;5;5;
80639;PMS5003;69992;60.170;24.692;2023-12-29T11:44:48;4;3;
80639;PMS5003;69992;60.170;24.692;2023-12-29T11:52:05;6;6;
80639;PMS5003;69992;60.170;24.692;2023-12-29T11:54:31;10;8;
80639;PMS5003;69992;60.170;24.692;2023-12-29T11:56:57;6;6;
80639;PMS5003;69992;60.170;24.692;2023-12-29T11:59:23;5;5;
80639;PMS5003;69992;60.170;24.692;2023-12-29T12:01:49;5;5;
80639;PMS5003;69992;60.170;24.692;2023-12-29T12:06:43;6;6;
80639;PMS5003;69992;60.170;24.692;2023-12-29T12:13:57;5;5;
80639;PMS5003;69992;60.170;24.692;2023-12-29T12:18:53;6;6;
80639;PMS5003;69992;60.170;24.692;2023-12-29T12:21:16;8;8;
80639;PMS5003;69992;60.170;24.692;2023-12-29T12:23:41;6;6;
80639;PMS5003;69992;60.170;24.692;2023-12-29T12:26:06;6;6;
80639;PMS5003;69992;60.170;24.692;2023-12-29T12:28:32;8;8;
80639;PMS5003;69992;60.170;24.692;2023-12-29T12:33:24;8;6;
80639;PMS5003;69992;60.170;24.692;2023-12-29T12:38:16;6;6;
80639;PMS5003;69992;60.170;24.692;2023-12-29T12:40:41;5;4;
80639;PMS5003;69992;60.170;24.692;2023-12-29T12:43:07;4;4;
80639;PMS5003;69992;60.170;24.692;2023-12-29T12:45:33;4;4;
80639;PMS5003;69992;60.170;24.692;2023-12-29T12:48:00;5;5;
80639;PMS5003;69992;60.170;24.692;2023-12-29T12:50:24;4;4;
80639;PMS5003;69992;60.170;24.692;2023-12-29T12:52:50;4;4;
80639;PMS5003;69992;60.170;24.692;2023-12-29T12:55:16;3;3;
80639;PMS5003;69992;60.170;24.692;2023-12-29T12:57:42;6;5;
80639;PMS5003;69992;60.170;24.692;2023-12-29T13:00:08;4;3;
80639;PMS5003;69992;60.170;24.692;2023-12-29T13:02:33;5;5;
80639;PMS5003;69992;60.170;24.692;2023-12-29T13:04:59;4;4;
80639;PMS5003;69992;60.170;24.692;2023-12-29T13:07:25;3;3;
80639;PMS5003;69992;60.170;24.692;2023-12-29T13:09:51;11;10;
80639;PMS5003;69992;60.170;24.692;2023-12-29T13:12:16;13;11;
80639;PMS5003;69992;60.170;24.692;2023-12-29T13:14:42;8;8;
80639;PMS5003;69992;60.170;24.692;2023-12-29T13:17:08;6;6;
80639;PMS5003;69992;60.170;24.692;2023-12-29T13:19:34;10;9;
80639;PMS5003;69992;60.170;24.692;2023-12-29T13:22:00;5;5;
80639;PMS5003;69992;60.170;24.692;2023-12-29T13:24:26;11;10;
80639;PMS5003;69992;60.170;24.692;2023-12-29T13:26:51;12;12;
80639;PMS5003;69992;60.170;24.692;2023-12-29T13:29:17;16;13;
80639;PMS5003;69992;60.170;24.692;2023-12-29T13:31:43;18;17;
80639;PMS5003;69992;60.170;24.692;2023-12-29T13:34:11;11;11;
80639;PMS5003;69992;60.170;24.692;2023-12-29T13:36:35;12;12;
80639;PMS5003;69992;60.170;24.692;2023-12-29T13:39:03;19;18;
80639;PMS5003;69992;60.170;24.692;2023-12-29T13:41:26;13;13;
80639;PMS5003;69992;60.170;24.692;2023-12-29T13:43:55;9;9;
80639;PMS5003;69992;60.170;24.692;2023-12-29T13:46:17;10;10;
80639;PMS5003;69992;60.170;24.692;2023-12-29T13:48:43;18;16;
80639;PMS5003;69992;60.170;24.692;2023-12-29T13:51:08;20;20;
80639;PMS5003;69992;60.170;24.692;2023-12-29T13:53:34;13;13;
80639;PMS5003;69992;60.170;24.692;2023-12-29T13:58:26;4;4;
80639;PMS5003;69992;60.170;24.692;2023-12-29T14:00:53;5;4;
80639;PMS5003;69992;60.170;24.692;2023-12-29T14:03:23;6;6;
80639;PMS5003;69992;60.170;24.692;2023-12-29T14:05:47;4;4;
80639;PMS5003;69992;60.170;24.692;2023-12-29T14:08:10;3;3;
80639;PMS5003;69992;60.170;24.692;2023-12-29T14:10:35;4;4;
80639;PMS5003;69992;60.170;24.692;2023-12-29T14:13:05;4;4;
80639;PMS5003;69992;60.170;24.692;2023-12-29T14:15:26;3;3;
80639;PMS5003;69992;60.170;24.692;2023-12-29T14:17:52;3;3;
80639;PMS5003;69992;60.170;24.692;2023-12-29T14:22:44;5;5;
80639;PMS5003;69992;60.170;24.692;2023-12-29T14:25:10;5;5;
80639;PMS5003;69992;60.170;24.692;2023-12-29T14:27:35;6;6;
80639;PMS5003;69992;60.170;24.692;2023-12-29T14:30:01;6;6;
80639;PMS5003;69992;60.170;24.692;2023-12-29T14:32:27;4;4;
80639;PMS5003;69992;60.170;24.692;2023-12-29T14:34:53;9;9;
80639;PMS5003;69992;60.170;24.692;2023-12-29T14:37:18;8;6;
80639;PMS5003;69992;60.170;24.692;2023-12-29T14:39:47;10;10;
80639;PMS5003;69992;60.170;24.692;2023-12-29T14:42:10;9;9;
80639;PMS5003;69992;60.170;24.692;2023-12-29T14:44:39;6;6;
80639;PMS5003;69992;60.170;24.692;2023-12-29T14:47:02;5;5;
80639;PMS5003;69992;60.170;24.692;2023-12-29T14:49:27;3;3;
80639;PMS5003;69992;60.170;24.692;2023-12-29T14:51:53;3;3;
80639;PMS5003;69992;60.170;24.692;2023-12-29T14:54:20;4;4;
80639;PMS5003;69992;60.170;24.692;2023-12-29T14:56:45;4;4;
80639;PMS5003;69992;60.170;24.692;2023-12-29T14:59:11;4;4;
80639;PMS5003;69992;60.170;24.692;2023-12-29T15:01:36;2;2;
80639;PMS5003;69992;60.170;24.692;2023-12-29T15:04:02;3;3;
80639;PMS5003;69992;60.170;24.692;2023-12-29T15:06:28;2;2;
80639;PMS5003;69992;60.170;24.692;2023-12-29T15:08:54;3;3;
80639;PMS5003;69992;60.170;24.692;2023-12-29T15:11:20;2;2;
80639;PMS5003;69992;60.170;24.692;2023-12-29T15:13:45;2;1;
80639;PMS5003;69992;60.170;24.692;2023-12-29T15:16:11;1;1;
80639;PMS5003;69992;60.170;24.692;2023-12-29T15:18:37;1;1;
80639;PMS5003;69992;60.170;24.692;2023-12-29T15:21:03;2;2;
80639;PMS5003;69992;60.170;24.692;2023-12-29T15:23:29;3;3;
80639;PMS5003;69992;60.170;24.692;2023-12-29T15:25:54;1;1;
80639;PMS5003;69992;60.170;24.692;2023-12-29T15:28:20;1;1;
80639;PMS5003;69992;60.170;24.692;2023-12-29T15:30:46;1;1;
80639;PMS5003;69992;60.170;24.692;2023-12-29T15:33:12;2;2;
80639;PMS5003;69992;60.170;24.692;2023-12-29T15:35:38;1;1;
80639;PMS5003;69992;60.170;24.692;2023-12-29T15:38:04;1;1;
80639;PMS5003;69992;60.170;24.692;2023-12-29T15:40:29;2;2;
80639;PMS5003;69992;60.170;24.692;2023-12-29T15:42:55;2;2;
80639;PMS5003;69992;60.170;24.692;2023-12-29T15:45:21;2;2;
80639;PMS5003;69992;60.170;24.692;2023-12-29T15:47:47;1;1;
80639;PMS5003;69992;60.170;24.692;2023-12-29T15:50:12;5;5;
80639;PMS5003;69992;60.170;24.692;2023-12-29T15:52:38;4;4;
80639;PMS5003;69992;60.170;24.692;2023-12-29T15:55:05;4;4;
80639;PMS5003;69992;60.170;24.692;2023-12-29T15:57:30;1;1;
80639;PMS5003;69992;60.170;24.692;2023-12-29T15:59:56;5;4;
80639;PMS5003;69992;60.170;24.692;2023-12-29T16:02:21;2;2;
80639;PMS5003;69992;60.170;24.692;2023-12-29T16:04:47;17;16;
80639;PMS5003;69992;60.170;24.692;2023-12-29T16:07:13;3;3;
80639;PMS5003;69992;60.170;24.692;2023-12-29T16:09:40;3;3;
80639;PMS5003;69992;60.170;24.692;2023-12-29T16:12:05;2;2;
80639;PMS5003;69992;60.170;24.692;2023-12-29T16:14:30;1;1;
80639;PMS5003;69992;60.170;24.692;2023-12-29T16:16:56;3;3;
80639;PMS5003;69992;60.170;24.692;2023-12-29T16:19:27;3;3;
80639;PMS5003;69992;60.170;24.692;2023-12-29T16:21:48;5;4;
80639;PMS5003;69992;60.170;24.692;2023-12-29T16:24:14;2;2;
80639;PMS5003;69992;60.170;24.692;2023-12-29T16:26:39;4;4;
80639;PMS5003;69992;60.170;24.692;2023-12-29T16:29:05;4;4;
80639;PMS5003;69992;60.170;24.692;2023-12-29T16:31:31;4;4;
80639;PMS5003;69992;60.170;24.692;2023-12-29T16:34:00;4;4;
80639;PMS5003;69992;60.170;24.692;2023-12-29T16:36:23;3;3;
80639;PMS5003;69992;60.170;24.692;2023-12-29T16:38:49;8;6;
80639;PMS5003;69992;60.170;24.692;2023-12-29T16:41:14;3;3;
80639;PMS5003;69992;60.170;24.692;2023-12-29T16:43:40;5;5;
80639;PMS5003;69992;60.170;24.692;2023-12-29T16:46:06;4;4;
80639;PMS5003;69992;60.170;24.692;2023-12-29T16:48:32;4;4;